KPUC

Carbon County Regional / Buck Davis Field Airport

Price, Utah, USA
METAR KPUC 190853Z AUTO 36006KT 10SM CLR 13/M08 A2998 RMK AO2 SLP070 T01331078 50001
Observed Flight Rules
Sep-19 @ 08:53 UTC (43 minutes ago) Visual Flight Rules
Wind Visibility Clouds
360° at 6 knots 10 miles
  • Clear skies
Temperatures Readings
Current 13°C / 55°F
Dewpoint -8°C / 18°F
Humidity 23%
Altimeter 29.98" Hg
Pressure 1007 hPa
Elevation 2091
METAR KPUC 190853Z AUTO 36006KT 10SM CLR 13/M08 A2998 RMK AO2 SLP070 T01331078 50001
Observed Flight Rules
Sep-19 @ 08:53 UTC
(43 minutes ago)
VFR
Wind Visibility
360° at 6 knots 10 miles
Clouds
  • Clear skies
Temperature Dewpoint
13°C / 55°F -8°C / 18°F
Humidity Altimeter Pressure
23% 29.98" Hg 1007 hPa